createdAt,value
2019-06-10T00:00:43.466Z,27.00
2019-06-10T00:03:14.395Z,27.00
2019-06-10T00:05:45.675Z,27.00
2019-06-10T00:08:16.951Z,27.10
2019-06-10T00:10:51.151Z,27.10
2019-06-10T00:13:22.209Z,27.10
2019-06-10T00:15:53.289Z,27.20
2019-06-10T00:18:40.930Z,27.20
2019-06-10T00:20:57.205Z,27.20
2019-06-10T00:23:28.195Z,27.30
2019-06-10T00:26:03.248Z,27.30
2019-06-10T00:28:31.574Z,27.40
2019-06-10T00:31:03.909Z,27.40
2019-06-10T00:33:34.663Z,27.50
2019-06-10T00:36:07.489Z,27.50
2019-06-10T00:38:37.608Z,27.60
2019-06-10T00:41:09.963Z,27.60
2019-06-10T00:43:41.234Z,27.70
2019-06-10T00:46:13.345Z,27.80
2019-06-10T00:48:44.127Z,27.80
2019-06-10T00:51:14.634Z,27.90
2019-06-10T00:53:46.225Z,28.00
2019-06-10T00:56:21.333Z,28.00
2019-06-10T00:58:51.840Z,28.10
2019-06-10T01:01:22.989Z,28.20
2019-06-10T01:03:54.876Z,28.20
2019-06-10T01:06:26.572Z,28.30
2019-06-10T01:08:57.692Z,28.40
2019-06-10T01:11:30.864Z,28.40
2019-06-10T01:14:05.188Z,28.50
2019-06-10T01:16:37.554Z,28.60
2019-06-10T01:19:08.373Z,28.60
2019-06-10T01:21:41.445Z,28.70
2019-06-10T01:24:13.074Z,28.70
2019-06-10T01:26:43.846Z,28.80
2019-06-10T01:29:18.162Z,28.90
2019-06-10T01:31:47.939Z,28.90
2019-06-10T01:34:18.667Z,29.00
2019-06-10T01:36:51.882Z,29.00
2019-06-10T01:39:22.744Z,29.00
2019-06-10T01:41:53.599Z,29.10
2019-06-10T01:44:24.310Z,29.20
2019-06-10T01:46:55.349Z,29.20
2019-06-10T01:49:26.522Z,29.30
2019-06-10T01:51:57.512Z,29.40
2019-06-10T01:54:28.509Z,29.50
2019-06-10T01:57:01.484Z,29.60
2019-06-10T01:59:32.142Z,29.70
2019-06-10T02:02:04.548Z,29.70
2019-06-10T02:04:35.653Z,29.80
2019-06-10T02:07:06.754Z,29.90
2019-06-10T02:09:38.015Z,30.00
2019-06-10T02:12:12.117Z,30.10
2019-06-10T02:14:41.663Z,30.10
2019-06-10T02:17:16.059Z,30.20
2019-06-10T02:19:45.312Z,30.20
2019-06-10T02:22:17.059Z,30.30
2019-06-10T02:24:50.667Z,30.30
2019-06-10T02:27:21.959Z,30.40
2019-06-10T02:29:53.720Z,30.40
2019-06-10T02:32:32.962Z,30.50
2019-06-10T02:35:13.693Z,30.60
2019-06-10T02:37:33.852Z,30.70
2019-06-10T02:40:04.481Z,30.80
2019-06-10T02:42:36.411Z,30.90
2019-06-10T02:45:09.557Z,30.90
2019-06-10T02:47:44.036Z,31.00
2019-06-10T02:50:16.258Z,31.10
2019-06-10T02:52:45.446Z,31.20
2019-06-10T02:55:18.297Z,31.20
2019-06-10T02:57:48.885Z,31.20
2019-06-10T03:00:31.752Z,31.30
2019-06-10T03:02:53.094Z,31.40
2019-06-10T03:05:30.615Z,31.50
2019-06-10T03:07:56.258Z,31.50
2019-06-10T03:10:36.767Z,31.60
2019-06-10T03:13:04.822Z,31.70
2019-06-10T03:15:37.131Z,31.70
2019-06-10T03:18:08.200Z,31.80
2019-06-10T03:20:39.232Z,31.90
2019-06-10T03:23:12.047Z,31.90
2019-06-10T03:25:42.877Z,31.90
2019-06-10T03:28:13.819Z,32.00
2019-06-10T03:30:53.501Z,32.00
2019-06-10T03:33:20.867Z,32.10
2019-06-10T03:35:52.671Z,32.20
2019-06-10T03:38:27.001Z,32.30
2019-06-10T03:40:56.251Z,32.40
2019-06-10T03:43:27.905Z,32.40
2019-06-10T03:46:03.153Z,32.50
2019-06-10T03:48:32.992Z,32.60
2019-06-10T03:51:03.946Z,32.70
2019-06-10T03:53:34.976Z,32.80
2019-06-10T03:56:05.836Z,32.80
2019-06-10T03:58:37.172Z,32.80
2019-06-10T04:01:07.848Z,32.60
2019-06-10T04:03:38.699Z,32.50
2019-06-10T04:06:09.706Z,32.50
2019-06-10T04:08:43.075Z,32.40
2019-06-10T04:11:12.956Z,32.50
2019-06-10T04:13:44.351Z,32.60
2019-06-10T04:16:15.425Z,32.70
2019-06-10T04:18:46.737Z,32.80
2019-06-10T04:21:17.962Z,32.80
2019-06-10T04:23:48.428Z,32.90
2019-06-10T04:26:19.765Z,32.90
2019-06-10T04:28:52.859Z,33.00
2019-06-10T04:31:24.358Z,32.90
2019-06-10T04:33:55.381Z,32.90
2019-06-10T04:36:28.149Z,32.80
2019-06-10T04:38:59.018Z,32.90
2019-06-10T04:41:32.472Z,32.90
2019-06-10T04:44:02.903Z,32.80
2019-06-10T04:46:33.865Z,32.70
2019-06-10T04:49:04.916Z,32.70
2019-06-10T04:51:36.244Z,32.70
2019-06-10T04:54:07.542Z,32.60
2019-06-10T04:56:38.552Z,32.60
2019-06-10T04:59:09.701Z,32.50
2019-06-10T05:01:42.560Z,32.60
2019-06-10T05:04:12.889Z,32.60
2019-06-10T05:06:43.872Z,32.80
2019-06-10T05:09:14.851Z,32.90
2019-06-10T05:11:46.002Z,33.00
2019-06-10T05:14:16.799Z,33.10
2019-06-10T05:16:48.607Z,33.30
2019-06-10T05:19:19.943Z,33.40
2019-06-10T05:21:52.411Z,33.60
2019-06-10T05:24:27.730Z,33.70
2019-06-10T05:26:55.663Z,33.80
2019-06-10T05:29:28.023Z,34.00
2019-06-10T05:31:58.968Z,34.00
2019-06-10T05:34:34.057Z,34.10
2019-06-10T05:37:03.141Z,34.10
2019-06-10T05:39:35.157Z,34.10
2019-06-10T05:42:06.925Z,34.10
2019-06-10T05:44:37.956Z,34.20
2019-06-10T05:47:08.945Z,34.20
2019-06-10T05:49:40.135Z,34.20
2019-06-10T05:52:12.585Z,34.20
2019-06-10T05:54:44.061Z,34.10
2019-06-10T05:57:15.138Z,34.10
2019-06-10T05:59:46.092Z,34.00
2019-06-10T06:02:17.177Z,33.90
2019-06-10T06:04:47.985Z,33.90
2019-06-10T06:07:19.094Z,33.80
2019-06-10T06:09:50.351Z,33.80
2019-06-10T06:12:22.647Z,33.70
2019-06-10T06:14:53.603Z,33.70
2019-06-10T06:17:25.826Z,33.60
2019-06-10T06:19:58.749Z,33.60
2019-06-10T06:22:29.776Z,33.50
2019-06-10T06:25:03.779Z,33.50
2019-06-10T06:27:35.422Z,33.30
2019-06-10T06:30:14.742Z,33.30
2019-06-10T06:32:43.557Z,33.20
2019-06-10T06:35:14.783Z,33.20
2019-06-10T06:37:45.830Z,33.30
2019-06-10T06:40:17.206Z,33.30
2019-06-10T06:42:48.395Z,33.00
2019-06-10T06:45:22.080Z,32.80
2019-06-10T06:47:52.871Z,32.60
2019-06-10T06:50:25.673Z,32.20
2019-06-10T06:53:23.374Z,31.80
2019-06-10T06:55:28.690Z,31.50
2019-06-10T06:57:59.612Z,31.20
2019-06-10T07:00:49.193Z,31.00
2019-06-10T07:03:05.757Z,30.90
2019-06-10T07:05:37.578Z,30.80
2019-06-10T07:08:09.223Z,30.90
2019-06-10T07:10:40.800Z,31.10
2019-06-10T07:13:12.919Z,31.30
2019-06-10T07:15:47.395Z,31.50
2019-06-10T07:18:18.722Z,31.80
2019-06-10T07:20:49.853Z,32.00
2019-06-10T07:23:22.517Z,32.30
2019-06-10T07:25:53.305Z,32.50
2019-06-10T07:28:24.248Z,32.70
2019-06-10T07:30:55.316Z,32.90
2019-06-10T07:33:26.207Z,33.10
2019-06-10T07:35:57.594Z,33.20
2019-06-10T07:38:28.776Z,33.40
2019-06-10T07:41:02.391Z,33.50
2019-06-10T07:43:33.205Z,33.60
2019-06-10T07:46:04.516Z,33.70
2019-06-10T07:48:37.185Z,33.90
2019-06-10T07:51:08.347Z,33.90
2019-06-10T07:53:40.004Z,34.00
2019-06-10T07:56:12.845Z,34.10
2019-06-10T07:58:47.394Z,34.10
2019-06-10T08:01:16.228Z,34.20
2019-06-10T08:03:47.251Z,34.20
2019-06-10T08:06:18.126Z,34.30
2019-06-10T08:08:49.124Z,34.20
2019-06-10T08:11:22.660Z,34.20
2019-06-10T08:13:53.832Z,34.20
2019-06-10T08:16:25.811Z,34.20
2019-06-10T08:19:24.657Z,34.20
2019-06-10T08:21:29.294Z,34.10
2019-06-10T08:24:00.314Z,34.00
2019-06-10T08:26:35.414Z,33.90
2019-06-10T08:29:06.633Z,33.60
2019-06-10T08:31:38.718Z,33.40
2019-06-10T08:34:09.858Z,33.30
2019-06-10T08:36:45.010Z,33.10
2019-06-10T08:39:16.018Z,33.00
2019-06-10T08:41:48.660Z,32.90
2019-06-10T08:44:18.046Z,32.60
2019-06-10T08:46:48.918Z,32.50
2019-06-10T08:49:20.392Z,32.50
2019-06-10T08:51:53.355Z,32.40
2019-06-10T08:54:24.551Z,32.40
2019-06-10T08:56:55.840Z,32.30
2019-06-10T08:59:26.648Z,32.30
2019-06-10T09:01:57.819Z,32.30
2019-06-10T09:04:29.564Z,32.20
2019-06-10T09:07:03.317Z,32.20
2019-06-10T09:09:33.658Z,32.20
2019-06-10T09:12:05.300Z,32.30
2019-06-10T09:14:36.808Z,32.30
2019-06-10T09:17:07.810Z,32.30
2019-06-10T09:19:39.773Z,32.30
2019-06-10T09:22:12.607Z,32.40
2019-06-10T09:24:48.752Z,32.50
2019-06-10T09:27:16.956Z,32.50
2019-06-10T09:29:51.893Z,32.70
2019-06-10T09:32:22.866Z,32.80
2019-06-10T09:34:57.115Z,33.00
2019-06-10T09:37:24.565Z,33.10
2019-06-10T09:42:34.535Z,33.40
2019-06-10T09:45:06.932Z,33.40
2019-06-10T09:47:42.586Z,33.50
2019-06-10T09:50:17.881Z,33.40
2019-06-10T09:52:53.460Z,33.40
2019-06-10T09:55:24.264Z,33.30
2019-06-10T09:57:59.776Z,33.30
2019-06-10T10:00:30.118Z,33.40
2019-06-10T10:03:03.373Z,33.40
2019-06-10T10:05:33.846Z,33.40
2019-06-10T10:08:04.625Z,33.50
2019-06-10T10:10:37.610Z,33.50
2019-06-10T10:13:09.704Z,33.60
2019-06-10T10:15:41.863Z,33.50
2019-06-10T10:18:13.961Z,33.50
2019-06-10T10:20:47.908Z,33.50
2019-06-10T10:23:16.797Z,33.40
2019-06-10T10:25:49.988Z,33.40
2019-06-10T10:28:25.046Z,33.30
2019-06-10T10:30:57.612Z,33.30
2019-06-10T10:33:29.935Z,33.30
2019-06-10T10:35:58.505Z,33.30
2019-06-10T10:38:29.971Z,33.30
2019-06-10T10:41:03.596Z,33.30
2019-06-10T10:43:37.477Z,33.30
2019-06-10T10:46:06.414Z,33.20
2019-06-10T10:48:37.207Z,33.20
2019-06-10T10:51:08.824Z,33.10
2019-06-10T10:53:44.147Z,33.10
2019-06-10T10:56:13.971Z,33.10
2019-06-10T10:58:47.003Z,33.10
2019-06-10T11:01:17.190Z,33.00
2019-06-10T11:03:49.733Z,32.90
2019-06-10T11:06:23.082Z,32.90
2019-06-10T11:08:55.840Z,32.80
2019-06-10T11:11:26.330Z,32.80
2019-06-10T11:13:59.980Z,32.70
2019-06-10T11:16:33.021Z,32.70
2019-06-10T11:19:04.837Z,32.60
2019-06-10T11:21:42.492Z,32.60
2019-06-10T11:24:14.489Z,32.60
2019-06-10T11:26:45.796Z,32.50
2019-06-10T11:29:16.892Z,32.50
2019-06-10T11:31:48.455Z,32.40
2019-06-10T11:34:19.937Z,32.40
2019-06-10T11:36:55.022Z,32.40
2019-06-10T11:39:23.703Z,32.30
2019-06-10T11:41:56.042Z,32.20
2019-06-10T11:44:26.557Z,32.20
2019-06-10T11:46:59.679Z,32.10
2019-06-10T11:52:23.044Z,32.10
2019-06-10T11:55:04.166Z,32.00
2019-06-10T11:57:33.001Z,32.00
2019-06-10T12:00:13.894Z,32.00
2019-06-10T12:02:41.764Z,31.90
2019-06-10T12:05:13.093Z,31.90
2019-06-10T12:07:43.640Z,31.80
2019-06-10T12:10:14.379Z,31.80
2019-06-10T12:12:45.291Z,31.70
2019-06-10T12:15:16.233Z,31.70
2019-06-10T12:17:53.515Z,31.70
2019-06-10T12:20:22.956Z,31.60
2019-06-10T12:22:57.101Z,31.60
2019-06-10T12:25:36.865Z,31.60
2019-06-10T12:28:07.023Z,31.50
2019-06-10T12:30:34.529Z,31.50
2019-06-10T12:33:05.842Z,31.50
2019-06-10T12:35:36.991Z,31.40
2019-06-10T12:38:13.838Z,31.40
2019-06-10T12:40:43.803Z,31.40
2019-06-10T12:43:16.903Z,31.40
2019-06-10T12:45:49.603Z,31.30
2019-06-10T12:48:22.174Z,31.30
2019-06-10T12:50:55.661Z,31.20
2019-06-10T12:53:26.764Z,31.20
2019-06-10T12:55:59.268Z,31.10
2019-06-10T12:58:33.167Z,31.10
2019-06-10T13:01:07.997Z,31.00
2019-06-10T13:03:39.182Z,31.00
2019-06-10T13:06:12.708Z,31.00
2019-06-10T13:08:42.965Z,30.90
2019-06-10T13:11:15.702Z,30.90
2019-06-10T13:13:46.435Z,30.80
2019-06-10T13:16:20.008Z,30.80
2019-06-10T13:18:52.304Z,30.80
2019-06-10T13:21:22.865Z,30.80
2019-06-10T13:23:55.834Z,30.80
2019-06-10T13:26:26.367Z,30.80
2019-06-10T13:28:58.977Z,30.80
2019-06-10T13:31:29.837Z,30.80
2019-06-10T13:34:05.120Z,30.80
2019-06-10T13:36:33.273Z,30.70
2019-06-10T13:39:08.125Z,30.70
2019-06-10T13:41:36.888Z,30.70
2019-06-10T13:44:08.485Z,30.60
2019-06-10T13:46:39.471Z,30.60
2019-06-10T13:49:12.451Z,30.60
2019-06-10T13:51:43.914Z,30.60
2019-06-10T13:54:14.663Z,30.60
2019-06-10T13:56:47.413Z,30.50
2019-06-10T13:59:22.970Z,30.50
2019-06-10T14:01:54.041Z,30.50
2019-06-10T14:04:25.751Z,30.40
2019-06-10T14:06:57.342Z,30.40
2019-06-10T14:09:29.129Z,30.40
2019-06-10T14:12:00.159Z,30.50
2019-06-10T14:14:33.272Z,30.40
2019-06-10T14:17:04.016Z,30.50
2019-06-10T14:19:34.897Z,30.50
2019-06-10T14:22:08.007Z,30.50
2019-06-10T14:24:37.302Z,30.40
2019-06-10T14:27:09.183Z,30.50
2019-06-10T14:29:41.876Z,30.50
2019-06-10T14:32:11.915Z,30.50
2019-06-10T14:34:42.433Z,30.50
2019-06-10T14:37:14.367Z,30.50
2019-06-10T14:39:44.293Z,30.40
2019-06-10T14:42:16.235Z,30.40
2019-06-10T14:44:46.494Z,30.30
2019-06-10T14:47:16.881Z,30.30
2019-06-10T14:49:47.370Z,30.30
2019-06-10T14:52:17.588Z,30.20
2019-06-10T14:54:47.699Z,30.20
2019-06-10T14:57:17.933Z,30.20
2019-06-10T14:59:47.946Z,30.20
2019-06-10T15:02:18.075Z,30.20
2019-06-10T15:04:48.551Z,30.10
2019-06-10T15:07:19.892Z,30.10
2019-06-10T15:09:52.629Z,30.10
2019-06-10T15:12:22.835Z,30.00
2019-06-10T15:14:53.126Z,30.00
2019-06-10T15:17:23.234Z,30.00
2019-06-10T15:19:53.506Z,29.90
2019-06-10T15:22:23.879Z,29.90
2019-06-10T15:24:53.988Z,29.90
2019-06-10T15:27:30.442Z,29.90
2019-06-10T15:29:55.695Z,29.80
2019-06-10T15:32:33.844Z,29.80
2019-06-10T15:34:57.487Z,29.80
2019-06-10T15:37:28.955Z,29.80
2019-06-10T15:39:59.257Z,29.70
2019-06-10T15:42:29.376Z,29.70
2019-06-10T15:44:59.400Z,29.70
2019-06-10T15:47:29.626Z,29.70
2019-06-10T15:49:59.837Z,29.60
2019-06-10T15:52:29.855Z,29.60
2019-06-10T15:55:00.118Z,29.50
2019-06-10T15:57:39.394Z,29.50
2019-06-10T16:00:02.966Z,29.50
2019-06-10T16:02:33.730Z,29.50
2019-06-10T16:05:03.839Z,29.50
2019-06-10T16:07:33.941Z,29.50
2019-06-10T16:10:04.044Z,29.50
2019-06-10T16:12:34.884Z,29.50
2019-06-10T16:15:06.571Z,29.40
2019-06-10T16:17:36.822Z,29.40
2019-06-10T16:20:08.374Z,29.40
2019-06-10T16:22:38.993Z,29.40
2019-06-10T16:25:09.108Z,29.40
2019-06-10T16:27:47.392Z,29.40
2019-06-10T16:30:13.136Z,29.40
2019-06-10T16:32:46.176Z,29.40
2019-06-10T16:35:16.854Z,29.40
2019-06-10T16:37:46.805Z,29.30
2019-06-10T16:40:17.133Z,29.30
2019-06-10T16:42:47.399Z,29.30
2019-06-10T16:45:20.972Z,29.20
2019-06-10T16:47:49.064Z,29.20
2019-06-10T16:50:19.475Z,29.20
2019-06-10T16:52:49.424Z,29.10
2019-06-10T16:55:22.237Z,29.10
2019-06-10T16:57:59.345Z,29.10
2019-06-10T17:00:25.715Z,29.10
2019-06-10T17:02:54.565Z,29.00
2019-06-10T17:05:27.046Z,29.00
2019-06-10T17:07:56.096Z,28.90
2019-06-10T17:10:28.156Z,28.90
2019-06-10T17:12:59.362Z,28.90
2019-06-10T17:15:29.491Z,28.90
2019-06-10T17:17:59.747Z,28.90
2019-06-10T17:20:29.863Z,28.90
2019-06-10T17:23:03.197Z,28.80
2019-06-10T17:25:33.832Z,28.80
2019-06-10T17:28:17.863Z,28.80
2019-06-10T17:30:35.436Z,28.70
2019-06-10T17:33:05.485Z,28.70
2019-06-10T17:35:36.824Z,28.70
2019-06-10T17:38:06.911Z,28.70
2019-06-10T17:40:40.128Z,28.70
2019-06-10T17:43:10.133Z,28.70
2019-06-10T17:45:42.200Z,28.70
2019-06-10T17:48:12.915Z,28.70
2019-06-10T17:50:42.959Z,28.70
2019-06-10T17:53:13.167Z,28.60
2019-06-10T17:55:43.400Z,28.70
2019-06-10T17:58:13.531Z,28.70
2019-06-10T18:00:46.721Z,28.70
2019-06-10T18:03:16.933Z,28.70
2019-06-10T18:05:47.162Z,28.60
2019-06-10T18:08:17.066Z,28.60
2019-06-10T18:10:46.971Z,28.60
2019-06-10T18:13:17.093Z,28.60
2019-06-10T18:15:47.185Z,28.50
2019-06-10T18:18:17.273Z,28.50
2019-06-10T18:20:47.305Z,28.50
2019-06-10T18:23:17.321Z,28.40
2019-06-10T18:25:47.410Z,28.40
2019-06-10T18:28:17.465Z,28.40
2019-06-10T18:30:49.301Z,28.40
2019-06-10T18:33:19.330Z,28.30
2019-06-10T18:35:49.426Z,28.30
2019-06-10T18:38:19.556Z,28.30
2019-06-10T18:40:49.672Z,28.20
2019-06-10T18:43:19.705Z,28.20
2019-06-10T18:45:52.948Z,28.20
2019-06-10T18:48:23.159Z,28.20
2019-06-10T18:50:53.652Z,28.20
2019-06-10T18:53:24.010Z,28.10
2019-06-10T18:55:54.962Z,28.10
2019-06-10T18:58:25.138Z,28.10
2019-06-10T19:01:03.417Z,28.10
2019-06-10T19:03:28.418Z,28.10
2019-06-10T19:05:58.834Z,28.10
2019-06-10T19:08:29.091Z,28.10
2019-06-10T19:10:59.274Z,28.10
2019-06-10T19:13:29.631Z,28.00
2019-06-10T19:16:02.185Z,28.00
2019-06-10T19:18:31.929Z,28.00
2019-06-10T19:21:04.175Z,28.00
2019-06-10T19:23:36.114Z,28.00
2019-06-10T19:26:05.904Z,27.90
2019-06-10T19:28:37.518Z,27.90
2019-06-10T19:31:07.680Z,27.90
2019-06-10T19:33:39.154Z,27.90
2019-06-10T19:36:09.595Z,27.80
2019-06-10T19:38:39.955Z,27.80
2019-06-10T19:41:10.537Z,27.80
2019-06-10T19:43:41.639Z,27.80
2019-06-10T19:46:12.875Z,27.80
2019-06-10T19:48:55.431Z,27.80
2019-06-10T19:51:14.908Z,27.80
2019-06-10T19:53:45.249Z,27.80
2019-06-10T19:56:15.417Z,27.80
2019-06-10T19:58:46.493Z,27.80
2019-06-10T20:01:16.749Z,27.80
2019-06-10T20:03:47.154Z,27.90
2019-06-10T20:06:17.493Z,27.80
2019-06-10T20:08:47.695Z,27.80
2019-06-10T20:11:17.798Z,27.80
2019-06-10T20:13:47.823Z,27.80
2019-06-10T20:16:17.855Z,27.80
2019-06-10T20:18:49.805Z,27.80
2019-06-10T20:21:22.564Z,27.80
2019-06-10T20:23:53.066Z,27.80
2019-06-10T20:26:23.633Z,27.80
2019-06-10T20:28:55.436Z,27.80
2019-06-10T20:31:25.690Z,27.80
2019-06-10T20:33:56.383Z,27.80
2019-06-10T20:36:27.470Z,27.70
2019-06-10T20:38:58.022Z,27.70
2019-06-10T20:41:29.062Z,27.70
2019-06-10T20:44:02.665Z,27.70
2019-06-10T20:46:32.570Z,27.70
2019-06-10T20:49:03.526Z,27.70
2019-06-10T20:51:48.874Z,27.70
2019-06-10T20:54:06.846Z,27.80
2019-06-10T20:56:38.589Z,27.80
2019-06-10T20:59:09.437Z,27.80
2019-06-10T21:01:43.261Z,27.80
2019-06-10T21:04:13.216Z,27.80
2019-06-10T21:06:45.409Z,27.80
2019-06-10T21:09:16.236Z,27.80
2019-06-10T21:11:48.572Z,27.80
2019-06-10T21:14:18.995Z,27.80
2019-06-10T21:16:51.083Z,27.70
2019-06-10T21:19:23.290Z,27.80
2019-06-10T21:21:54.919Z,27.70
2019-06-10T21:24:25.946Z,27.70
2019-06-10T21:26:56.876Z,27.70
2019-06-10T21:29:28.017Z,27.80
2019-06-10T21:31:58.459Z,27.70
2019-06-10T21:34:28.861Z,27.70
2019-06-10T21:36:59.751Z,27.70
2019-06-10T21:39:32.238Z,27.70
2019-06-10T21:42:02.928Z,27.60
2019-06-10T21:44:33.773Z,27.60
2019-06-10T21:47:04.765Z,27.60
2019-06-10T21:49:35.737Z,27.60
2019-06-10T21:52:06.794Z,27.60
2019-06-10T21:54:37.592Z,27.60
2019-06-10T21:57:09.052Z,27.60
2019-06-10T21:59:42.545Z,27.50
2019-06-10T22:02:12.753Z,27.60
2019-06-10T22:04:45.155Z,27.60
2019-06-10T22:07:16.543Z,27.60
2019-06-10T22:09:47.711Z,27.60
2019-06-10T22:12:19.200Z,27.50
2019-06-10T22:14:50.406Z,27.50
2019-06-10T22:17:21.122Z,27.50
2019-06-10T22:19:53.598Z,27.50
2019-06-10T22:22:24.359Z,27.50
2019-06-10T22:24:56.385Z,27.50
2019-06-10T22:27:27.348Z,27.40
2019-06-10T22:30:02.691Z,27.40
2019-06-10T22:32:32.342Z,27.30
2019-06-10T22:35:03.323Z,27.30
2019-06-10T22:37:34.406Z,27.30
2019-06-10T22:40:06.482Z,27.30
2019-06-10T22:42:37.944Z,27.30
2019-06-10T22:45:08.562Z,27.20
2019-06-10T22:47:38.774Z,27.20
2019-06-10T22:50:09.247Z,27.10
2019-06-10T22:52:39.266Z,27.10
2019-06-10T22:55:09.475Z,27.10
2019-06-10T22:57:43.719Z,27.00
2019-06-10T23:00:13.119Z,27.00
2019-06-10T23:02:43.924Z,27.00
2019-06-10T23:05:17.216Z,27.00
2019-06-10T23:07:45.746Z,27.00
2019-06-10T23:10:16.076Z,27.00
2019-06-10T23:12:46.412Z,26.90
2019-06-10T23:15:16.704Z,26.90
2019-06-10T23:17:47.287Z,26.90
2019-06-10T23:20:17.596Z,26.90
2019-06-10T23:22:49.059Z,26.90
2019-06-10T23:25:21.916Z,26.90
2019-06-10T23:27:54.746Z,27.00
2019-06-10T23:30:23.391Z,27.00
2019-06-10T23:32:56.089Z,27.00
2019-06-10T23:35:25.576Z,27.00
2019-06-10T23:37:58.217Z,27.10
2019-06-10T23:40:27.822Z,27.10
2019-06-10T23:42:58.987Z,27.10
2019-06-10T23:45:29.266Z,27.10
2019-06-10T23:48:00.661Z,27.10
2019-06-10T23:50:32.896Z,27.10
2019-06-10T23:53:07.593Z,27.10
2019-06-10T23:55:35.018Z,27.10
2019-06-10T23:58:05.446Z,27.10
